sensor_id;sensor_type;location;lat;lon;timestamp;P1;durP1;ratioP1;P2;durP2;ratioP2
43998;SDS011;51319;52.162;5.302;2022-11-13T00:01:22;93.03;;;59.35;;
43998;SDS011;51319;52.162;5.302;2022-11-13T00:03:56;90.07;;;55.20;;
43998;SDS011;51319;52.162;5.302;2022-11-13T00:06:26;83.70;;;51.38;;
43998;SDS011;51319;52.162;5.302;2022-11-13T00:08:56;85.68;;;51.88;;
43998;SDS011;51319;52.162;5.302;2022-11-13T00:11:25;94.20;;;54.58;;
43998;SDS011;51319;52.162;5.302;2022-11-13T00:13:55;97.32;;;56.03;;
43998;SDS011;51319;52.162;5.302;2022-11-13T00:16:22;84.55;;;50.25;;
43998;SDS011;51319;52.162;5.302;2022-11-13T00:18:49;83.30;;;50.97;;
43998;SDS011;51319;52.162;5.302;2022-11-13T00:21:17;85.78;;;49.88;;
43998;SDS011;51319;52.162;5.302;2022-11-13T00:23:47;83.00;;;50.90;;
43998;SDS011;51319;52.162;5.302;2022-11-13T00:26:16;76.30;;;46.97;;
43998;SDS011;51319;52.162;5.302;2022-11-13T00:28:52;76.75;;;46.28;;
43998;SDS011;51319;52.162;5.302;2022-11-13T00:31:20;79.68;;;46.83;;
43998;SDS011;51319;52.162;5.302;2022-11-13T00:33:47;71.30;;;45.17;;
43998;SDS011;51319;52.162;5.302;2022-11-13T00:36:34;79.80;;;48.13;;
43998;SDS011;51319;52.162;5.302;2022-11-13T00:39:01;91.78;;;56.00;;
43998;SDS011;51319;52.162;5.302;2022-11-13T00:41:28;95.97;;;55.85;;
43998;SDS011;51319;52.162;5.302;2022-11-13T00:43:55;86.57;;;51.80;;
43998;SDS011;51319;52.162;5.302;2022-11-13T00:46:22;75.75;;;45.42;;
43998;SDS011;51319;52.162;5.302;2022-11-13T00:48:49;68.47;;;43.88;;
43998;SDS011;51319;52.162;5.302;2022-11-13T00:51:16;76.75;;;47.75;;
43998;SDS011;51319;52.162;5.302;2022-11-13T00:53:44;78.85;;;47.38;;
43998;SDS011;51319;52.162;5.302;2022-11-13T00:56:11;63.13;;;42.83;;
43998;SDS011;51319;52.162;5.302;2022-11-13T00:58:38;69.65;;;42.58;;
43998;SDS011;51319;52.162;5.302;2022-11-13T01:01:06;71.32;;;41.42;;
43998;SDS011;51319;52.162;5.302;2022-11-13T01:03:35;62.63;;;38.33;;
43998;SDS011;51319;52.162;5.302;2022-11-13T01:06:15;58.78;;;36.45;;
43998;SDS011;51319;52.162;5.302;2022-11-13T01:08:46;61.00;;;38.88;;
43998;SDS011;51319;52.162;5.302;2022-11-13T01:11:14;60.45;;;37.63;;
43998;SDS011;51319;52.162;5.302;2022-11-13T01:13:44;60.42;;;36.28;;
43998;SDS011;51319;52.162;5.302;2022-11-13T01:16:13;59.28;;;37.35;;
43998;SDS011;51319;52.162;5.302;2022-11-13T01:18:42;55.60;;;37.03;;
43998;SDS011;51319;52.162;5.302;2022-11-13T01:21:13;55.70;;;35.60;;
43998;SDS011;51319;52.162;5.302;2022-11-13T01:23:45;60.40;;;34.65;;
43998;SDS011;51319;52.162;5.302;2022-11-13T01:28:43;55.63;;;35.67;;
43998;SDS011;51319;52.162;5.302;2022-11-13T01:31:12;60.72;;;36.40;;
43998;SDS011;51319;52.162;5.302;2022-11-13T01:33:42;53.53;;;32.25;;
43998;SDS011;51319;52.162;5.302;2022-11-13T01:36:11;57.67;;;33.97;;
43998;SDS011;51319;52.162;5.302;2022-11-13T01:38:39;61.67;;;35.97;;
43998;SDS011;51319;52.162;5.302;2022-11-13T01:41:06;56.60;;;34.00;;
43998;SDS011;51319;52.162;5.302;2022-11-13T01:43:38;51.08;;;32.25;;
43998;SDS011;51319;52.162;5.302;2022-11-13T01:46:06;54.40;;;33.45;;
43998;SDS011;51319;52.162;5.302;2022-11-13T01:48:46;53.60;;;34.83;;
43998;SDS011;51319;52.162;5.302;2022-11-13T01:51:33;49.22;;;30.25;;
43998;SDS011;51319;52.162;5.302;2022-11-13T01:54:06;40.78;;;27.83;;
43998;SDS011;51319;52.162;5.302;2022-11-13T01:56:36;44.67;;;29.55;;
43998;SDS011;51319;52.162;5.302;2022-11-13T01:59:38;43.22;;;27.52;;
43998;SDS011;51319;52.162;5.302;2022-11-13T02:02:01;39.00;;;25.05;;
43998;SDS011;51319;52.162;5.302;2022-11-13T02:04:28;41.15;;;24.65;;
43998;SDS011;51319;52.162;5.302;2022-11-13T02:07:00;45.17;;;25.52;;
43998;SDS011;51319;52.162;5.302;2022-11-13T02:09:35;40.35;;;24.02;;
43998;SDS011;51319;52.162;5.302;2022-11-13T02:12:04;39.55;;;25.98;;
43998;SDS011;51319;52.162;5.302;2022-11-13T02:14:34;42.80;;;27.35;;
43998;SDS011;51319;52.162;5.302;2022-11-13T02:17:05;42.95;;;27.63;;
43998;SDS011;51319;52.162;5.302;2022-11-13T02:19:34;41.00;;;24.67;;
43998;SDS011;51319;52.162;5.302;2022-11-13T02:24:39;31.65;;;22.60;;
43998;SDS011;51319;52.162;5.302;2022-11-13T02:32:51;39.28;;;23.92;;
43998;SDS011;51319;52.162;5.302;2022-11-13T02:35:26;43.17;;;23.73;;
43998;SDS011;51319;52.162;5.302;2022-11-13T02:37:58;40.42;;;24.92;;
43998;SDS011;51319;52.162;5.302;2022-11-13T02:40:27;34.65;;;23.75;;
43998;SDS011;51319;52.162;5.302;2022-11-13T02:42:55;35.38;;;22.83;;
43998;SDS011;51319;52.162;5.302;2022-11-13T02:45:22;32.13;;;22.17;;
43998;SDS011;51319;52.162;5.302;2022-11-13T02:47:49;34.70;;;21.25;;
43998;SDS011;51319;52.162;5.302;2022-11-13T02:50:16;35.28;;;22.23;;
43998;SDS011;51319;52.162;5.302;2022-11-13T02:52:45;35.42;;;22.27;;
43998;SDS011;51319;52.162;5.302;2022-11-13T02:55:13;35.95;;;22.70;;
43998;SDS011;51319;52.162;5.302;2022-11-13T02:57:40;34.88;;;23.77;;
43998;SDS011;51319;52.162;5.302;2022-11-13T03:00:07;34.20;;;22.27;;
43998;SDS011;51319;52.162;5.302;2022-11-13T03:02:39;41.13;;;23.63;;
43998;SDS011;51319;52.162;5.302;2022-11-13T03:05:06;37.65;;;22.73;;
43998;SDS011;51319;52.162;5.302;2022-11-13T03:07:38;36.28;;;22.17;;
43998;SDS011;51319;52.162;5.302;2022-11-13T03:10:06;35.90;;;22.98;;
43998;SDS011;51319;52.162;5.302;2022-11-13T03:12:34;37.90;;;24.77;;
43998;SDS011;51319;52.162;5.302;2022-11-13T03:15:06;38.50;;;24.15;;
43998;SDS011;51319;52.162;5.302;2022-11-13T03:17:34;39.08;;;21.92;;
43998;SDS011;51319;52.162;5.302;2022-11-13T03:20:01;35.30;;;23.45;;
43998;SDS011;51319;52.162;5.302;2022-11-13T03:22:29;43.50;;;24.98;;
43998;SDS011;51319;52.162;5.302;2022-11-13T03:24:56;45.38;;;27.38;;
43998;SDS011;51319;52.162;5.302;2022-11-13T03:27:23;41.17;;;23.77;;
43998;SDS011;51319;52.162;5.302;2022-11-13T03:29:50;36.25;;;24.05;;
43998;SDS011;51319;52.162;5.302;2022-11-13T03:32:17;38.03;;;23.90;;
43998;SDS011;51319;52.162;5.302;2022-11-13T03:34:44;33.42;;;22.75;;
43998;SDS011;51319;52.162;5.302;2022-11-13T03:37:11;37.35;;;23.05;;
43998;SDS011;51319;52.162;5.302;2022-11-13T03:39:38;38.50;;;24.02;;
43998;SDS011;51319;52.162;5.302;2022-11-13T03:42:04;35.08;;;23.73;;
43998;SDS011;51319;52.162;5.302;2022-11-13T03:44:31;36.72;;;23.70;;
43998;SDS011;51319;52.162;5.302;2022-11-13T03:46:58;39.38;;;23.35;;
43998;SDS011;51319;52.162;5.302;2022-11-13T03:49:25;35.08;;;21.98;;
43998;SDS011;51319;52.162;5.302;2022-11-13T03:51:52;38.30;;;22.60;;
43998;SDS011;51319;52.162;5.302;2022-11-13T03:54:19;38.47;;;23.77;;
43998;SDS011;51319;52.162;5.302;2022-11-13T03:56:46;34.83;;;21.40;;
43998;SDS011;51319;52.162;5.302;2022-11-13T03:59:13;34.88;;;22.77;;
43998;SDS011;51319;52.162;5.302;2022-11-13T04:01:40;36.67;;;22.52;;
43998;SDS011;51319;52.162;5.302;2022-11-13T04:04:07;30.40;;;21.02;;
43998;SDS011;51319;52.162;5.302;2022-11-13T04:06:33;39.55;;;21.70;;
43998;SDS011;51319;52.162;5.302;2022-11-13T04:09:01;39.97;;;22.67;;
43998;SDS011;51319;52.162;5.302;2022-11-13T04:11:28;37.22;;;21.13;;
43998;SDS011;51319;52.162;5.302;2022-11-13T04:13:55;30.00;;;18.42;;
43998;SDS011;51319;52.162;5.302;2022-11-13T04:16:22;32.92;;;20.27;;
43998;SDS011;51319;52.162;5.302;2022-11-13T04:18:48;34.53;;;19.95;;
43998;SDS011;51319;52.162;5.302;2022-11-13T04:21:15;30.10;;;19.63;;
43998;SDS011;51319;52.162;5.302;2022-11-13T04:23:42;31.50;;;20.77;;
43998;SDS011;51319;52.162;5.302;2022-11-13T04:26:09;35.28;;;20.50;;
43998;SDS011;51319;52.162;5.302;2022-11-13T04:28:36;33.78;;;21.10;;
43998;SDS011;51319;52.162;5.302;2022-11-13T04:31:03;35.22;;;21.83;;
43998;SDS011;51319;52.162;5.302;2022-11-13T04:33:30;36.88;;;21.70;;
43998;SDS011;51319;52.162;5.302;2022-11-13T04:35:57;32.47;;;21.05;;
43998;SDS011;51319;52.162;5.302;2022-11-13T04:38:24;35.20;;;21.13;;
43998;SDS011;51319;52.162;5.302;2022-11-13T04:40:51;42.67;;;22.23;;
43998;SDS011;51319;52.162;5.302;2022-11-13T04:43:41;40.92;;;22.33;;
43998;SDS011;51319;52.162;5.302;2022-11-13T04:46:07;34.72;;;21.83;;
43998;SDS011;51319;52.162;5.302;2022-11-13T04:48:34;36.25;;;22.20;;
43998;SDS011;51319;52.162;5.302;2022-11-13T04:51:01;36.15;;;21.83;;
43998;SDS011;51319;52.162;5.302;2022-11-13T04:53:28;43.63;;;21.27;;
43998;SDS011;51319;52.162;5.302;2022-11-13T04:55:55;37.08;;;21.50;;
43998;SDS011;51319;52.162;5.302;2022-11-13T04:58:22;31.65;;;19.17;;
43998;SDS011;51319;52.162;5.302;2022-11-13T05:00:49;34.95;;;19.73;;
43998;SDS011;51319;52.162;5.302;2022-11-13T05:03:15;32.95;;;20.08;;
43998;SDS011;51319;52.162;5.302;2022-11-13T05:05:42;33.97;;;20.05;;
43998;SDS011;51319;52.162;5.302;2022-11-13T05:08:09;37.67;;;19.88;;
43998;SDS011;51319;52.162;5.302;2022-11-13T05:10:36;30.15;;;18.83;;
43998;SDS011;51319;52.162;5.302;2022-11-13T05:13:03;33.83;;;19.85;;
43998;SDS011;51319;52.162;5.302;2022-11-13T05:15:30;26.85;;;17.85;;
43998;SDS011;51319;52.162;5.302;2022-11-13T05:17:56;30.27;;;18.48;;
43998;SDS011;51319;52.162;5.302;2022-11-13T05:20:23;36.35;;;20.38;;
43998;SDS011;51319;52.162;5.302;2022-11-13T05:22:50;28.88;;;18.88;;
43998;SDS011;51319;52.162;5.302;2022-11-13T05:25:17;32.55;;;19.67;;
43998;SDS011;51319;52.162;5.302;2022-11-13T05:27:44;32.70;;;20.33;;
43998;SDS011;51319;52.162;5.302;2022-11-13T05:30:10;34.83;;;19.45;;
43998;SDS011;51319;52.162;5.302;2022-11-13T05:32:37;24.42;;;16.77;;
43998;SDS011;51319;52.162;5.302;2022-11-13T05:35:04;23.40;;;17.25;;
43998;SDS011;51319;52.162;5.302;2022-11-13T05:37:31;28.00;;;17.15;;
43998;SDS011;51319;52.162;5.302;2022-11-13T05:39:58;31.13;;;18.35;;
43998;SDS011;51319;52.162;5.302;2022-11-13T05:42:25;34.28;;;17.27;;
43998;SDS011;51319;52.162;5.302;2022-11-13T05:44:52;26.83;;;17.35;;
43998;SDS011;51319;52.162;5.302;2022-11-13T05:47:18;28.77;;;16.65;;
43998;SDS011;51319;52.162;5.302;2022-11-13T05:49:45;34.08;;;18.67;;
43998;SDS011;51319;52.162;5.302;2022-11-13T05:52:15;32.58;;;18.27;;
43998;SDS011;51319;52.162;5.302;2022-11-13T05:54:42;28.58;;;17.08;;
43998;SDS011;51319;52.162;5.302;2022-11-13T05:57:09;27.08;;;16.25;;
43998;SDS011;51319;52.162;5.302;2022-11-13T05:59:36;30.83;;;18.15;;
43998;SDS011;51319;52.162;5.302;2022-11-13T06:02:03;29.13;;;17.88;;
43998;SDS011;51319;52.162;5.302;2022-11-13T06:04:30;28.38;;;18.33;;
43998;SDS011;51319;52.162;5.302;2022-11-13T06:06:56;30.55;;;18.70;;
43998;SDS011;51319;52.162;5.302;2022-11-13T06:09:24;31.05;;;18.48;;
43998;SDS011;51319;52.162;5.302;2022-11-13T06:11:50;38.90;;;17.75;;
43998;SDS011;51319;52.162;5.302;2022-11-13T06:14:17;28.30;;;18.15;;
43998;SDS011;51319;52.162;5.302;2022-11-13T06:16:44;26.60;;;17.15;;
43998;SDS011;51319;52.162;5.302;2022-11-13T06:19:11;31.48;;;16.88;;
43998;SDS011;51319;52.162;5.302;2022-11-13T06:21:38;32.47;;;18.52;;
43998;SDS011;51319;52.162;5.302;2022-11-13T06:24:07;27.73;;;16.85;;
43998;SDS011;51319;52.162;5.302;2022-11-13T06:26:36;28.27;;;17.85;;
43998;SDS011;51319;52.162;5.302;2022-11-13T06:29:04;27.38;;;17.40;;
43998;SDS011;51319;52.162;5.302;2022-11-13T06:31:33;27.92;;;17.75;;
43998;SDS011;51319;52.162;5.302;2022-11-13T06:34:02;28.35;;;18.05;;
43998;SDS011;51319;52.162;5.302;2022-11-13T06:36:31;28.92;;;17.70;;
43998;SDS011;51319;52.162;5.302;2022-11-13T06:39:00;27.90;;;17.67;;
43998;SDS011;51319;52.162;5.302;2022-11-13T06:41:28;30.55;;;17.15;;
43998;SDS011;51319;52.162;5.302;2022-11-13T06:43:57;29.05;;;17.30;;
43998;SDS011;51319;52.162;5.302;2022-11-13T06:46:28;28.98;;;17.15;;
43998;SDS011;51319;52.162;5.302;2022-11-13T06:48:57;35.58;;;17.90;;
43998;SDS011;51319;52.162;5.302;2022-11-13T06:51:26;31.58;;;18.15;;
43998;SDS011;51319;52.162;5.302;2022-11-13T06:53:54;26.38;;;16.80;;
43998;SDS011;51319;52.162;5.302;2022-11-13T06:56:22;32.30;;;17.48;;
43998;SDS011;51319;52.162;5.302;2022-11-13T06:58:49;26.92;;;16.67;;
43998;SDS011;51319;52.162;5.302;2022-11-13T07:01:18;31.85;;;17.85;;
43998;SDS011;51319;52.162;5.302;2022-11-13T07:03:47;35.00;;;18.00;;
43998;SDS011;51319;52.162;5.302;2022-11-13T07:06:15;30.08;;;17.70;;
43998;SDS011;51319;52.162;5.302;2022-11-13T07:08:43;29.40;;;16.55;;
43998;SDS011;51319;52.162;5.302;2022-11-13T07:11:15;33.60;;;17.75;;
43998;SDS011;51319;52.162;5.302;2022-11-13T07:13:44;26.40;;;16.10;;
43998;SDS011;51319;52.162;5.302;2022-11-13T07:16:12;29.33;;;18.70;;
43998;SDS011;51319;52.162;5.302;2022-11-13T07:18:43;31.42;;;18.65;;
43998;SDS011;51319;52.162;5.302;2022-11-13T07:21:17;29.05;;;18.20;;
43998;SDS011;51319;52.162;5.302;2022-11-13T07:23:48;41.38;;;21.60;;
43998;SDS011;51319;52.162;5.302;2022-11-13T07:26:16;38.67;;;22.27;;
43998;SDS011;51319;52.162;5.302;2022-11-13T07:28:44;37.83;;;21.17;;
43998;SDS011;51319;52.162;5.302;2022-11-13T07:31:14;32.75;;;20.95;;
43998;SDS011;51319;52.162;5.302;2022-11-13T07:33:42;31.05;;;19.73;;
43998;SDS011;51319;52.162;5.302;2022-11-13T07:36:09;37.75;;;21.80;;
43998;SDS011;51319;52.162;5.302;2022-11-13T07:38:36;35.97;;;19.73;;
43998;SDS011;51319;52.162;5.302;2022-11-13T07:41:04;30.92;;;19.13;;
43998;SDS011;51319;52.162;5.302;2022-11-13T07:43:31;29.52;;;19.27;;
43998;SDS011;51319;52.162;5.302;2022-11-13T07:46:00;35.17;;;18.88;;
43998;SDS011;51319;52.162;5.302;2022-11-13T07:48:27;28.98;;;17.85;;
43998;SDS011;51319;52.162;5.302;2022-11-13T07:50:58;30.13;;;20.05;;
43998;SDS011;51319;52.162;5.302;2022-11-13T07:53:26;39.15;;;21.50;;
43998;SDS011;51319;52.162;5.302;2022-11-13T07:55:54;41.05;;;20.13;;
43998;SDS011;51319;52.162;5.302;2022-11-13T07:58:20;31.95;;;20.83;;
43998;SDS011;51319;52.162;5.302;2022-11-13T08:00:47;33.38;;;20.38;;
43998;SDS011;51319;52.162;5.302;2022-11-13T08:03:15;30.33;;;19.55;;
43998;SDS011;51319;52.162;5.302;2022-11-13T08:05:42;40.90;;;21.10;;
43998;SDS011;51319;52.162;5.302;2022-11-13T08:08:10;33.40;;;20.00;;
43998;SDS011;51319;52.162;5.302;2022-11-13T08:10:38;31.67;;;19.75;;
43998;SDS011;51319;52.162;5.302;2022-11-13T08:13:06;31.02;;;19.65;;
43998;SDS011;51319;52.162;5.302;2022-11-13T08:18:09;31.05;;;19.92;;
43998;SDS011;51319;52.162;5.302;2022-11-13T08:20:36;29.23;;;16.92;;
43998;SDS011;51319;52.162;5.302;2022-11-13T08:23:03;22.50;;;15.63;;
43998;SDS011;51319;52.162;5.302;2022-11-13T08:25:31;25.13;;;15.10;;
43998;SDS011;51319;52.162;5.302;2022-11-13T08:27:59;20.40;;;13.88;;
43998;SDS011;51319;52.162;5.302;2022-11-13T08:30:26;15.57;;;11.45;;
43998;SDS011;51319;52.162;5.302;2022-11-13T08:32:54;17.95;;;11.07;;
43998;SDS011;51319;52.162;5.302;2022-11-13T08:35:23;16.45;;;10.25;;
43998;SDS011;51319;52.162;5.302;2022-11-13T08:37:54;16.23;;;9.70;;
43998;SDS011;51319;52.162;5.302;2022-11-13T08:40:27;15.68;;;10.65;;
43998;SDS011;51319;52.162;5.302;2022-11-13T08:43:00;20.30;;;11.68;;
43998;SDS011;51319;52.162;5.302;2022-11-13T08:45:29;18.73;;;11.73;;
43998;SDS011;51319;52.162;5.302;2022-11-13T08:48:00;15.73;;;11.77;;
43998;SDS011;51319;52.162;5.302;2022-11-13T08:50:27;20.10;;;11.40;;
43998;SDS011;51319;52.162;5.302;2022-11-13T08:52:56;15.77;;;11.10;;
43998;SDS011;51319;52.162;5.302;2022-11-13T08:55:24;15.63;;;10.98;;
43998;SDS011;51319;52.162;5.302;2022-11-13T08:57:52;15.38;;;11.38;;
43998;SDS011;51319;52.162;5.302;2022-11-13T09:00:19;13.43;;;11.27;;
43998;SDS011;51319;52.162;5.302;2022-11-13T09:02:46;13.95;;;11.60;;
43998;SDS011;51319;52.162;5.302;2022-11-13T09:05:13;21.15;;;12.27;;
43998;SDS011;51319;52.162;5.302;2022-11-13T09:07:40;15.75;;;11.40;;
43998;SDS011;51319;52.162;5.302;2022-11-13T09:10:07;15.43;;;11.65;;
43998;SDS011;51319;52.162;5.302;2022-11-13T09:12:33;19.20;;;12.25;;
43998;SDS011;51319;52.162;5.302;2022-11-13T09:15:00;19.80;;;12.57;;
43998;SDS011;51319;52.162;5.302;2022-11-13T09:17:27;21.55;;;12.80;;
43998;SDS011;51319;52.162;5.302;2022-11-13T09:19:54;15.60;;;12.15;;
43998;SDS011;51319;52.162;5.302;2022-11-13T09:22:27;23.15;;;14.18;;
43998;SDS011;51319;52.162;5.302;2022-11-13T09:24:54;19.98;;;12.82;;
43998;SDS011;51319;52.162;5.302;2022-11-13T09:27:20;16.30;;;11.40;;
43998;SDS011;51319;52.162;5.302;2022-11-13T09:29:47;14.65;;;9.60;;
43998;SDS011;51319;52.162;5.302;2022-11-13T09:32:20;18.67;;;12.93;;
43998;SDS011;51319;52.162;5.302;2022-11-13T09:34:47;13.02;;;10.10;;
43998;SDS011;51319;52.162;5.302;2022-11-13T09:37:14;15.63;;;9.48;;
43998;SDS011;51319;52.162;5.302;2022-11-13T09:39:41;20.80;;;12.18;;
43998;SDS011;51319;52.162;5.302;2022-11-13T09:42:11;14.15;;;9.40;;
43998;SDS011;51319;52.162;5.302;2022-11-13T09:44:44;13.77;;;8.68;;
43998;SDS011;51319;52.162;5.302;2022-11-13T09:50:03;12.85;;;8.75;;
43998;SDS011;51319;52.162;5.302;2022-11-13T09:52:40;11.38;;;8.02;;
43998;SDS011;51319;52.162;5.302;2022-11-13T09:55:13;10.18;;;8.23;;
43998;SDS011;51319;52.162;5.302;2022-11-13T10:00:10;11.68;;;8.90;;
43998;SDS011;51319;52.162;5.302;2022-11-13T10:05:41;12.15;;;9.05;;
43998;SDS011;51319;52.162;5.302;2022-11-13T10:08:33;13.30;;;9.23;;
43998;SDS011;51319;52.162;5.302;2022-11-13T10:13:53;14.48;;;9.20;;
43998;SDS011;51319;52.162;5.302;2022-11-13T10:22:01;17.65;;;10.82;;
43998;SDS011;51319;52.162;5.302;2022-11-13T10:24:53;16.85;;;9.95;;
43998;SDS011;51319;52.162;5.302;2022-11-13T10:27:26;15.60;;;9.30;;
43998;SDS011;51319;52.162;5.302;2022-11-13T10:29:53;13.90;;;8.23;;
43998;SDS011;51319;52.162;5.302;2022-11-13T10:32:22;16.27;;;11.55;;
43998;SDS011;51319;52.162;5.302;2022-11-13T10:37:50;14.35;;;9.93;;
43998;SDS011;51319;52.162;5.302;2022-11-13T10:40:39;17.20;;;9.38;;
43998;SDS011;51319;52.162;5.302;2022-11-13T10:45:58;13.40;;;9.45;;
43998;SDS011;51319;52.162;5.302;2022-11-13T10:48:31;13.57;;;8.27;;
43998;SDS011;51319;52.162;5.302;2022-11-13T10:57:02;9.93;;;8.07;;
43998;SDS011;51319;52.162;5.302;2022-11-13T10:59:37;10.57;;;8.32;;
43998;SDS011;51319;52.162;5.302;2022-11-13T11:02:27;12.15;;;8.23;;
43998;SDS011;51319;52.162;5.302;2022-11-13T11:05:00;14.88;;;8.75;;
43998;SDS011;51319;52.162;5.302;2022-11-13T11:07:29;10.52;;;7.50;;
43998;SDS011;51319;52.162;5.302;2022-11-13T11:10:06;13.88;;;6.72;;
43998;SDS011;51319;52.162;5.302;2022-11-13T11:18:30;8.55;;;4.75;;
43998;SDS011;51319;52.162;5.302;2022-11-13T11:21:07;8.15;;;5.18;;
43998;SDS011;51319;52.162;5.302;2022-11-13T11:29:38;8.52;;;5.15;;
43998;SDS011;51319;52.162;5.302;2022-11-13T11:32:10;6.93;;;4.80;;
43998;SDS011;51319;52.162;5.302;2022-11-13T11:35:12;7.38;;;4.53;;
43998;SDS011;51319;52.162;5.302;2022-11-13T11:37:46;8.38;;;4.75;;
43998;SDS011;51319;52.162;5.302;2022-11-13T11:43:42;7.82;;;4.85;;
43998;SDS011;51319;52.162;5.302;2022-11-13T11:46:10;9.20;;;5.30;;
43998;SDS011;51319;52.162;5.302;2022-11-13T11:48:38;8.13;;;5.10;;
43998;SDS011;51319;52.162;5.302;2022-11-13T11:53:53;7.45;;;4.80;;
43998;SDS011;51319;52.162;5.302;2022-11-13T11:56:33;8.35;;;5.15;;
43998;SDS011;51319;52.162;5.302;2022-11-13T12:13:01;6.50;;;5.07;;
43998;SDS011;51319;52.162;5.302;2022-11-13T12:26:25;7.80;;;4.00;;
43998;SDS011;51319;52.162;5.302;2022-11-13T12:36:55;7.93;;;3.95;;
43998;SDS011;51319;52.162;5.302;2022-11-13T12:42:05;10.77;;;5.25;;
43998;SDS011;51319;52.162;5.302;2022-11-13T12:48:31;7.35;;;4.45;;
43998;SDS011;51319;52.162;5.302;2022-11-13T12:51:10;6.80;;;4.50;;
43998;SDS011;51319;52.162;5.302;2022-11-13T12:58:55;11.15;;;4.50;;
43998;SDS011;51319;52.162;5.302;2022-11-13T13:01:51;8.43;;;5.00;;
43998;SDS011;51319;52.162;5.302;2022-11-13T13:04:53;8.27;;;4.88;;
43998;SDS011;51319;52.162;5.302;2022-11-13T13:15:42;9.65;;;4.97;;
43998;SDS011;51319;52.162;5.302;2022-11-13T13:18:23;7.55;;;4.22;;
43998;SDS011;51319;52.162;5.302;2022-11-13T13:23:36;9.07;;;4.60;;
43998;SDS011;51319;52.162;5.302;2022-11-13T13:26:18;8.13;;;5.22;;
43998;SDS011;51319;52.162;5.302;2022-11-13T13:28:55;6.68;;;4.63;;
43998;SDS011;51319;52.162;5.302;2022-11-13T13:31:35;12.10;;;4.78;;
43998;SDS011;51319;52.162;5.302;2022-11-13T13:37:39;11.57;;;5.95;;
43998;SDS011;51319;52.162;5.302;2022-11-13T13:48:31;25.33;;;15.90;;
43998;SDS011;51319;52.162;5.302;2022-11-13T13:51:02;8.45;;;4.75;;
43998;SDS011;51319;52.162;5.302;2022-11-13T13:53:35;5.45;;;4.13;;
43998;SDS011;51319;52.162;5.302;2022-11-13T13:56:02;5.85;;;3.28;;
43998;SDS011;51319;52.162;5.302;2022-11-13T13:58:31;6.55;;;3.72;;
43998;SDS011;51319;52.162;5.302;2022-11-13T14:01:13;8.45;;;6.20;;
43998;SDS011;51319;52.162;5.302;2022-11-13T14:04:04;5.35;;;3.53;;
43998;SDS011;51319;52.162;5.302;2022-11-13T14:06:46;4.80;;;2.88;;
43998;SDS011;51319;52.162;5.302;2022-11-13T14:09:19;3.42;;;2.95;;
43998;SDS011;51319;52.162;5.302;2022-11-13T14:11:55;6.13;;;4.00;;
43998;SDS011;51319;52.162;5.302;2022-11-13T14:14:37;15.57;;;7.65;;
43998;SDS011;51319;52.162;5.302;2022-11-13T14:17:05;16.23;;;8.98;;
43998;SDS011;51319;52.162;5.302;2022-11-13T14:19:33;9.38;;;5.03;;
43998;SDS011;51319;52.162;5.302;2022-11-13T14:22:02;7.25;;;5.13;;
43998;SDS011;51319;52.162;5.302;2022-11-13T14:24:32;12.23;;;5.07;;
43998;SDS011;51319;52.162;5.302;2022-11-13T14:27:02;6.60;;;3.88;;
43998;SDS011;51319;52.162;5.302;2022-11-13T14:29:46;11.35;;;3.15;;
43998;SDS011;51319;52.162;5.302;2022-11-13T14:32:25;5.65;;;4.68;;
43998;SDS011;51319;52.162;5.302;2022-11-13T14:34:58;9.63;;;4.75;;
43998;SDS011;51319;52.162;5.302;2022-11-13T14:37:31;7.93;;;3.93;;
43998;SDS011;51319;52.162;5.302;2022-11-13T14:40:09;7.53;;;4.97;;
43998;SDS011;51319;52.162;5.302;2022-11-13T14:42:57;30.05;;;19.90;;
43998;SDS011;51319;52.162;5.302;2022-11-13T14:45:26;11.02;;;7.25;;
43998;SDS011;51319;52.162;5.302;2022-11-13T14:50:30;4.47;;;3.08;;
43998;SDS011;51319;52.162;5.302;2022-11-13T14:53:04;8.50;;;3.72;;
43998;SDS011;51319;52.162;5.302;2022-11-13T14:55:36;47.08;;;27.70;;
43998;SDS011;51319;52.162;5.302;2022-11-13T14:58:04;10.05;;;7.25;;
43998;SDS011;51319;52.162;5.302;2022-11-13T15:00:35;12.95;;;5.10;;
43998;SDS011;51319;52.162;5.302;2022-11-13T15:03:11;6.63;;;4.93;;
43998;SDS011;51319;52.162;5.302;2022-11-13T15:05:42;10.55;;;7.07;;
43998;SDS011;51319;52.162;5.302;2022-11-13T15:08:12;10.23;;;5.22;;
43998;SDS011;51319;52.162;5.302;2022-11-13T15:10:39;7.80;;;4.20;;
43998;SDS011;51319;52.162;5.302;2022-11-13T15:13:10;7.35;;;5.03;;
43998;SDS011;51319;52.162;5.302;2022-11-13T15:18:29;24.50;;;14.03;;
43998;SDS011;51319;52.162;5.302;2022-11-13T15:20:59;29.92;;;17.45;;
43998;SDS011;51319;52.162;5.302;2022-11-13T15:23:26;19.23;;;9.95;;
43998;SDS011;51319;52.162;5.302;2022-11-13T15:25:54;17.58;;;8.88;;
43998;SDS011;51319;52.162;5.302;2022-11-13T15:28:33;17.27;;;8.65;;
43998;SDS011;51319;52.162;5.302;2022-11-13T15:31:00;14.93;;;7.40;;
43998;SDS011;51319;52.162;5.302;2022-11-13T15:33:33;14.80;;;7.93;;
43998;SDS011;51319;52.162;5.302;2022-11-13T15:36:00;15.73;;;9.63;;
43998;SDS011;51319;52.162;5.302;2022-11-13T15:38:28;27.75;;;16.27;;
43998;SDS011;51319;52.162;5.302;2022-11-13T15:40:59;39.63;;;23.20;;
43998;SDS011;51319;52.162;5.302;2022-11-13T15:43:26;15.25;;;10.02;;
43998;SDS011;51319;52.162;5.302;2022-11-13T15:45:53;13.43;;;7.72;;
43998;SDS011;51319;52.162;5.302;2022-11-13T15:48:22;8.85;;;6.85;;
43998;SDS011;51319;52.162;5.302;2022-11-13T15:50:49;15.60;;;8.23;;
43998;SDS011;51319;52.162;5.302;2022-11-13T15:53:17;18.50;;;10.63;;
43998;SDS011;51319;52.162;5.302;2022-11-13T15:55:44;15.10;;;8.30;;
43998;SDS011;51319;52.162;5.302;2022-11-13T15:58:14;14.27;;;8.73;;
43998;SDS011;51319;52.162;5.302;2022-11-13T16:00:41;13.18;;;8.18;;
43998;SDS011;51319;52.162;5.302;2022-11-13T16:03:11;12.93;;;6.85;;
43998;SDS011;51319;52.162;5.302;2022-11-13T16:05:38;17.50;;;7.75;;
43998;SDS011;51319;52.162;5.302;2022-11-13T16:08:11;15.88;;;7.22;;
43998;SDS011;51319;52.162;5.302;2022-11-13T16:10:39;15.70;;;6.53;;
43998;SDS011;51319;52.162;5.302;2022-11-13T16:13:07;14.05;;;7.35;;
43998;SDS011;51319;52.162;5.302;2022-11-13T16:15:34;18.17;;;10.02;;
43998;SDS011;51319;52.162;5.302;2022-11-13T16:18:01;18.15;;;8.18;;
43998;SDS011;51319;52.162;5.302;2022-11-13T16:20:27;15.85;;;8.07;;
43998;SDS011;51319;52.162;5.302;2022-11-13T16:22:54;9.48;;;6.35;;
43998;SDS011;51319;52.162;5.302;2022-11-13T16:25:21;12.90;;;7.55;;
43998;SDS011;51319;52.162;5.302;2022-11-13T16:27:48;12.40;;;7.60;;
43998;SDS011;51319;52.162;5.302;2022-11-13T16:30:18;14.20;;;7.97;;
43998;SDS011;51319;52.162;5.302;2022-11-13T16:32:47;12.52;;;7.97;;
43998;SDS011;51319;52.162;5.302;2022-11-13T16:35:15;18.10;;;12.05;;
43998;SDS011;51319;52.162;5.302;2022-11-13T16:37:42;21.80;;;12.25;;
43998;SDS011;51319;52.162;5.302;2022-11-13T16:42:42;57.90;;;30.98;;
43998;SDS011;51319;52.162;5.302;2022-11-13T16:45:09;22.90;;;13.85;;
43998;SDS011;51319;52.162;5.302;2022-11-13T16:47:36;28.63;;;13.70;;
43998;SDS011;51319;52.162;5.302;2022-11-13T16:50:07;29.75;;;15.73;;
43998;SDS011;51319;52.162;5.302;2022-11-13T16:52:49;36.50;;;18.73;;
43998;SDS011;51319;52.162;5.302;2022-11-13T16:55:16;58.33;;;23.40;;
43998;SDS011;51319;52.162;5.302;2022-11-13T16:57:43;58.97;;;26.13;;